Detall de PIREP

Printer-friendly versionPDF version

[2015/03/22 16:44:00]
Flight IATA:CT0002
Pilot Number:012
Company ICAO:CAT
Aircraft Type:F50/A
PAX:50
Aircraft Registration:PAOB
Departing Airport: LFMT
Destination Airport: LFKJ
Alternate Airport:LIEA
Online: VATSIM
Route:FJR UM731 TINOT
Flight Level:F190
No Slew and time accel
No pause
Crash detect
Detect pilot in Cockpit between each 30 and 45 minutes
16:44 Zero fuel Weight: 37632 Lbs, Fuel Weight: 5363 Lbs
16:44 VATSIM:LFMT 221630Z 04011KT 9999 SCT033 BKN083 12/04 Q1013 NOSIG
16:44 VATSIM:LFKJ 221630Z 21006KT 9999 FEW025 15/11 Q1010 NOSIG
16:51 Parking Brakes off
16:58 Take-off
16:58 Take off Weight: 42877 Lbs
16:58 Wind: 039º @ 011 Knots Heading: 308º
16:58 POS N43º 34´ 50´´ E003º 58´ 04´´
16:58 Flaps:2 at 119 Knots
16:58 Gear Up: 121 Knots
16:59 Flaps:1 at 152 Knots
17:00 Flaps:0 at 153 Knots
17:11 TOC
17:11 Fuel Weight: 4741 Lb
17:11 TOD
17:11 Fuel Weight: 4732 Lb
17:11 TOC
17:11 Fuel Weight: 4730 Lb
17:13 Wind:201º@027 Knots Heading: 134º Ground Speed: 237 Knots Altitude 18799 ft
17:13 TOD
17:13 Fuel Weight: 4697 Lb
17:13 TOC
17:13 Fuel Weight: 4692 Lb
17:28 Wind:194º@017 Knots Heading: 135º Ground Speed: 249 Knots Altitude 19022 ft
17:43 Wind:192º@016 Knots Heading: 121º Ground Speed: 252 Knots Altitude 18996 ft
17:48 TOD
17:48 Fuel Weight: 3660 Lb
17:58 Wind:050º@006 Knots Heading: 109º Ground Speed: 244 Knots Altitude 5239 ft
18:09 Flaps:1 at 180 Knots
18:09 Gear Down: 166 Knots
18:09 Flaps:2 at 161 Knots
18:09 Flaps:3 at 132 Knots
18:10 Flaps:4 at 140 Knots
18:11 Flaps:5 at 133 Knots
18:11 Flaps:6 at 124 Knots
18:13 Wind:173º@005 Knots Heading: 026º Ground Speed: 107 Knots Altitude 032 ft
18:13 TouchDown:Rate -216 ft/min Speed: 101 Knots
18:13 Flaps:4 at 11 Knots
18:13 VATSIM:LFKJ 221800Z AUTO 18005KT 9999 OVC042 13/11 Q1011
18:13 Land
18:13 Wind:172º@005 Knots
18:13 Heading: 019º
18:13 Flight Duration: 01:15
18:13 Landing Weight: 40832 Lbs
18:13 POS N41º 55´ 18´´ E008º 48´ 04´´
18:17 Parking brakes on
18:17 Block to Block Duration: 01:26
18:17 Final Fuel: 3152 Lbls
18:17 Spent Fuel: 2211 Lbls
18:17 Flight Length: 279 NM
18:17 TOD Land Length: 89 NM

Exportar CSV

Powered by Drupal - Modified by Danger4k